sensor_id;sensor_type;location;lat;lon;timestamp;P1;durP1;ratioP1;P2;durP2;ratioP2
51588;SDS011;37671;53.258;6.460;2022-10-16T00:00:37;10.43;;;1.60;;
51588;SDS011;37671;53.258;6.460;2022-10-16T00:03:05;7.78;;;1.50;;
51588;SDS011;37671;53.258;6.460;2022-10-16T00:05:41;6.88;;;1.90;;
51588;SDS011;37671;53.258;6.460;2022-10-16T00:08:09;7.80;;;2.10;;
51588;SDS011;37671;53.258;6.460;2022-10-16T00:10:36;10.05;;;1.70;;
51588;SDS011;37671;53.258;6.460;2022-10-16T00:13:02;7.32;;;1.23;;
51588;SDS011;37671;53.258;6.460;2022-10-16T00:15:28;8.20;;;1.50;;
51588;SDS011;37671;53.258;6.460;2022-10-16T00:17:53;8.18;;;1.42;;
51588;SDS011;37671;53.258;6.460;2022-10-16T00:20:19;10.48;;;1.63;;
51588;SDS011;37671;53.258;6.460;2022-10-16T00:22:45;8.15;;;1.60;;
51588;SDS011;37671;53.258;6.460;2022-10-16T00:25:11;11.85;;;1.50;;
51588;SDS011;37671;53.258;6.460;2022-10-16T00:27:36;6.90;;;1.42;;
51588;SDS011;37671;53.258;6.460;2022-10-16T00:30:02;11.07;;;1.92;;
51588;SDS011;37671;53.258;6.460;2022-10-16T00:32:28;8.20;;;1.40;;
51588;SDS011;37671;53.258;6.460;2022-10-16T00:34:54;8.77;;;1.33;;
51588;SDS011;37671;53.258;6.460;2022-10-16T00:37:20;9.82;;;1.35;;
51588;SDS011;37671;53.258;6.460;2022-10-16T00:39:46;6.32;;;1.33;;
51588;SDS011;37671;53.258;6.460;2022-10-16T00:42:18;6.00;;;1.40;;
51588;SDS011;37671;53.258;6.460;2022-10-16T00:44:54;8.20;;;1.13;;
51588;SDS011;37671;53.258;6.460;2022-10-16T00:50:16;8.65;;;1.20;;
51588;SDS011;37671;53.258;6.460;2022-10-16T00:52:49;4.85;;;1.13;;
51588;SDS011;37671;53.258;6.460;2022-10-16T00:55:16;9.13;;;1.42;;
51588;SDS011;37671;53.258;6.460;2022-10-16T00:57:42;5.57;;;1.40;;
51588;SDS011;37671;53.258;6.460;2022-10-16T01:00:10;7.30;;;0.98;;
51588;SDS011;37671;53.258;6.460;2022-10-16T01:02:38;6.40;;;1.20;;
51588;SDS011;37671;53.258;6.460;2022-10-16T01:05:04;9.73;;;1.35;;
51588;SDS011;37671;53.258;6.460;2022-10-16T01:10:07;4.90;;;1.27;;
51588;SDS011;37671;53.258;6.460;2022-10-16T01:20:40;7.68;;;1.23;;
51588;SDS011;37671;53.258;6.460;2022-10-16T01:26:18;6.05;;;1.00;;
51588;SDS011;37671;53.258;6.460;2022-10-16T01:30:04;6.15;;;1.15;;
51588;SDS011;37671;53.258;6.460;2022-10-16T06:01:09;5.38;;;1.70;;
51588;SDS011;37671;53.258;6.460;2022-10-16T06:03:37;6.15;;;1.90;;
51588;SDS011;37671;53.258;6.460;2022-10-16T06:06:13;6.22;;;1.45;;
51588;SDS011;37671;53.258;6.460;2022-10-16T06:08:41;7.55;;;2.10;;
51588;SDS011;37671;53.258;6.460;2022-10-16T06:11:09;6.20;;;2.22;;
51588;SDS011;37671;53.258;6.460;2022-10-16T06:13:39;5.20;;;1.83;;
51588;SDS011;37671;53.258;6.460;2022-10-16T06:16:07;6.95;;;2.20;;
51588;SDS011;37671;53.258;6.460;2022-10-16T06:18:34;5.80;;;1.80;;
51588;SDS011;37671;53.258;6.460;2022-10-16T06:21:06;6.47;;;2.00;;
51588;SDS011;37671;53.258;6.460;2022-10-16T06:23:33;6.40;;;1.85;;
51588;SDS011;37671;53.258;6.460;2022-10-16T06:26:09;6.13;;;2.10;;
51588;SDS011;37671;53.258;6.460;2022-10-16T06:28:37;7.65;;;1.88;;
51588;SDS011;37671;53.258;6.460;2022-10-16T06:31:03;6.32;;;2.25;;
51588;SDS011;37671;53.258;6.460;2022-10-16T06:33:30;5.18;;;2.08;;
51588;SDS011;37671;53.258;6.460;2022-10-16T06:36:09;8.65;;;1.92;;
51588;SDS011;37671;53.258;6.460;2022-10-16T06:38:36;5.70;;;2.13;;
51588;SDS011;37671;53.258;6.460;2022-10-16T06:41:03;5.22;;;1.77;;
51588;SDS011;37671;53.258;6.460;2022-10-16T06:43:29;7.60;;;2.10;;
51588;SDS011;37671;53.258;6.460;2022-10-16T06:46:00;6.13;;;1.88;;
51588;SDS011;37671;53.258;6.460;2022-10-16T06:48:27;6.93;;;2.20;;
51588;SDS011;37671;53.258;6.460;2022-10-16T06:51:08;4.90;;;1.83;;
51588;SDS011;37671;53.258;6.460;2022-10-16T06:53:42;7.53;;;2.20;;
51588;SDS011;37671;53.258;6.460;2022-10-16T06:56:11;5.70;;;2.08;;
51588;SDS011;37671;53.258;6.460;2022-10-16T06:58:39;5.82;;;1.52;;
51588;SDS011;37671;53.258;6.460;2022-10-16T07:01:05;5.43;;;1.77;;
51588;SDS011;37671;53.258;6.460;2022-10-16T07:03:32;6.82;;;2.05;;
51588;SDS011;37671;53.258;6.460;2022-10-16T07:06:02;6.60;;;1.85;;
51588;SDS011;37671;53.258;6.460;2022-10-16T07:08:32;6.45;;;2.10;;
51588;SDS011;37671;53.258;6.460;2022-10-16T07:10:59;7.57;;;1.70;;
51588;SDS011;37671;53.258;6.460;2022-10-16T07:13:29;6.40;;;1.60;;
51588;SDS011;37671;53.258;6.460;2022-10-16T07:15:57;7.63;;;1.80;;
51588;SDS011;37671;53.258;6.460;2022-10-16T07:18:23;5.30;;;1.90;;
51588;SDS011;37671;53.258;6.460;2022-10-16T07:20:51;7.47;;;1.80;;
51588;SDS011;37671;53.258;6.460;2022-10-16T07:23:17;9.60;;;1.98;;
51588;SDS011;37671;53.258;6.460;2022-10-16T07:25:43;7.60;;;1.65;;
51588;SDS011;37671;53.258;6.460;2022-10-16T07:28:08;5.32;;;1.45;;
51588;SDS011;37671;53.258;6.460;2022-10-16T07:30:35;5.18;;;1.50;;
51588;SDS011;37671;53.258;6.460;2022-10-16T07:33:02;6.40;;;1.20;;
51588;SDS011;37671;53.258;6.460;2022-10-16T07:35:28;6.07;;;1.27;;
51588;SDS011;37671;53.258;6.460;2022-10-16T07:37:54;5.32;;;1.00;;
51588;SDS011;37671;53.258;6.460;2022-10-16T07:40:22;7.35;;;1.38;;
51588;SDS011;37671;53.258;6.460;2022-10-16T07:42:48;7.25;;;1.35;;
51588;SDS011;37671;53.258;6.460;2022-10-16T07:45:13;5.85;;;1.30;;
51588;SDS011;37671;53.258;6.460;2022-10-16T07:47:39;5.90;;;1.30;;
51588;SDS011;37671;53.258;6.460;2022-10-16T07:50:05;5.32;;;1.65;;
51588;SDS011;37671;53.258;6.460;2022-10-16T07:52:30;10.00;;;1.90;;
51588;SDS011;37671;53.258;6.460;2022-10-16T07:54:56;4.75;;;1.27;;
51588;SDS011;37671;53.258;6.460;2022-10-16T07:57:22;10.75;;;1.80;;
51588;SDS011;37671;53.258;6.460;2022-10-16T07:59:47;5.95;;;1.60;;
51588;SDS011;37671;53.258;6.460;2022-10-16T08:02:13;6.00;;;1.45;;
51588;SDS011;37671;53.258;6.460;2022-10-16T08:04:38;5.78;;;1.50;;
51588;SDS011;37671;53.258;6.460;2022-10-16T08:07:04;7.40;;;1.73;;
51588;SDS011;37671;53.258;6.460;2022-10-16T08:09:32;5.85;;;1.70;;
51588;SDS011;37671;53.258;6.460;2022-10-16T08:11:58;5.15;;;1.58;;
51588;SDS011;37671;53.258;6.460;2022-10-16T08:14:23;6.85;;;1.98;;
51588;SDS011;37671;53.258;6.460;2022-10-16T08:16:49;7.15;;;1.73;;
51588;SDS011;37671;53.258;6.460;2022-10-16T08:19:14;6.10;;;2.17;;
51588;SDS011;37671;53.258;6.460;2022-10-16T08:21:40;5.68;;;1.50;;
51588;SDS011;37671;53.258;6.460;2022-10-16T08:24:06;5.40;;;1.73;;
51588;SDS011;37671;53.258;6.460;2022-10-16T08:26:32;4.07;;;1.50;;
51588;SDS011;37671;53.258;6.460;2022-10-16T08:28:57;9.25;;;1.90;;
51588;SDS011;37671;53.258;6.460;2022-10-16T08:31:23;11.32;;;2.42;;
51588;SDS011;37671;53.258;6.460;2022-10-16T08:33:49;9.82;;;1.88;;
51588;SDS011;37671;53.258;6.460;2022-10-16T08:36:16;6.78;;;1.90;;
51588;SDS011;37671;53.258;6.460;2022-10-16T08:38:42;5.28;;;1.63;;
51588;SDS011;37671;53.258;6.460;2022-10-16T08:41:21;6.10;;;1.85;;
51588;SDS011;37671;53.258;6.460;2022-10-16T08:44:16;8.48;;;1.35;;
51588;SDS011;37671;53.258;6.460;2022-10-16T08:49:16;4.95;;;1.40;;
51588;SDS011;37671;53.258;6.460;2022-10-16T08:51:42;7.00;;;1.40;;
51588;SDS011;37671;53.258;6.460;2022-10-16T08:57:17;5.15;;;1.15;;
51588;SDS011;37671;53.258;6.460;2022-10-16T08:59:45;7.43;;;1.55;;
51588;SDS011;37671;53.258;6.460;2022-10-16T09:02:19;7.03;;;2.10;;
51588;SDS011;37671;53.258;6.460;2022-10-16T09:21:44;7.55;;;1.35;;
51588;SDS011;37671;53.258;6.460;2022-10-16T09:24:22;7.35;;;1.30;;
51588;SDS011;37671;53.258;6.460;2022-10-16T09:26:50;8.80;;;1.40;;
51588;SDS011;37671;53.258;6.460;2022-10-16T09:29:17;19.67;;;2.50;;
51588;SDS011;37671;53.258;6.460;2022-10-16T09:31:49;12.95;;;1.92;;
51588;SDS011;37671;53.258;6.460;2022-10-16T09:36:59;8.40;;;1.45;;
51588;SDS011;37671;53.258;6.460;2022-10-16T09:39:29;9.88;;;1.85;;
51588;SDS011;37671;53.258;6.460;2022-10-16T09:41:54;7.25;;;1.40;;
51588;SDS011;37671;53.258;6.460;2022-10-16T09:44:22;9.25;;;1.27;;
51588;SDS011;37671;53.258;6.460;2022-10-16T09:49:53;12.60;;;1.75;;
51588;SDS011;37671;53.258;6.460;2022-10-16T09:52:21;11.65;;;1.50;;
51588;SDS011;37671;53.258;6.460;2022-10-16T09:54:52;11.80;;;1.90;;
51588;SDS011;37671;53.258;6.460;2022-10-16T09:57:19;10.32;;;1.70;;
51588;SDS011;37671;53.258;6.460;2022-10-16T09:59:49;9.23;;;1.95;;
51588;SDS011;37671;53.258;6.460;2022-10-16T10:02:17;14.52;;;1.88;;
51588;SDS011;37671;53.258;6.460;2022-10-16T10:04:51;10.35;;;1.90;;
51588;SDS011;37671;53.258;6.460;2022-10-16T10:07:32;8.32;;;1.63;;
51588;SDS011;37671;53.258;6.460;2022-10-16T10:10:04;11.05;;;1.65;;
51588;SDS011;37671;53.258;6.460;2022-10-16T10:12:30;9.88;;;1.70;;
51588;SDS011;37671;53.258;6.460;2022-10-16T10:15:12;12.90;;;2.03;;
51588;SDS011;37671;53.258;6.460;2022-10-16T10:17:47;10.40;;;1.75;;
51588;SDS011;37671;53.258;6.460;2022-10-16T10:20:28;12.50;;;1.95;;
51588;SDS011;37671;53.258;6.460;2022-10-16T10:22:57;11.93;;;1.92;;
51588;SDS011;37671;53.258;6.460;2022-10-16T10:47:08;14.90;;;2.33;;
51588;SDS011;37671;53.258;6.460;2022-10-16T11:03:46;11.55;;;1.67;;
51588;SDS011;37671;53.258;6.460;2022-10-16T11:06:26;17.58;;;2.08;;
51588;SDS011;37671;53.258;6.460;2022-10-16T11:11:33;12.02;;;2.03;;
51588;SDS011;37671;53.258;6.460;2022-10-16T11:16:54;16.02;;;2.05;;
51588;SDS011;37671;53.258;6.460;2022-10-16T11:21:59;12.52;;;2.00;;
51588;SDS011;37671;53.258;6.460;2022-10-16T11:27:22;10.88;;;1.77;;
51588;SDS011;37671;53.258;6.460;2022-10-16T11:29:57;15.73;;;1.95;;
51588;SDS011;37671;53.258;6.460;2022-10-16T11:32:33;10.88;;;1.98;;
51588;SDS011;37671;53.258;6.460;2022-10-16T11:35:15;9.48;;;1.70;;
51588;SDS011;37671;53.258;6.460;2022-10-16T11:37:56;13.38;;;1.95;;
51588;SDS011;37671;53.258;6.460;2022-10-16T11:40:25;8.63;;;1.73;;
51588;SDS011;37671;53.258;6.460;2022-10-16T11:43:01;12.68;;;2.10;;
51588;SDS011;37671;53.258;6.460;2022-10-16T11:46:13;11.03;;;1.73;;
51588;SDS011;37671;53.258;6.460;2022-10-16T11:48:45;13.65;;;2.00;;
51588;SDS011;37671;53.258;6.460;2022-10-16T11:53:58;13.10;;;2.03;;
51588;SDS011;37671;53.258;6.460;2022-10-16T11:57:02;10.32;;;1.60;;
51588;SDS011;37671;53.258;6.460;2022-10-16T11:59:46;10.25;;;1.65;;
51588;SDS011;37671;53.258;6.460;2022-10-16T12:05:14;12.88;;;2.10;;
51588;SDS011;37671;53.258;6.460;2022-10-16T12:07:47;13.93;;;2.15;;
51588;SDS011;37671;53.258;6.460;2022-10-16T12:10:35;16.25;;;2.15;;
51588;SDS011;37671;53.258;6.460;2022-10-16T12:13:04;13.15;;;1.73;;
51588;SDS011;37671;53.258;6.460;2022-10-16T12:15:50;12.65;;;2.08;;
51588;SDS011;37671;53.258;6.460;2022-10-16T12:18:20;11.90;;;2.50;;
51588;SDS011;37671;53.258;6.460;2022-10-16T12:20:56;14.25;;;2.50;;
51588;SDS011;37671;53.258;6.460;2022-10-16T12:23:25;12.23;;;1.73;;
51588;SDS011;37671;53.258;6.460;2022-10-16T12:25:55;14.45;;;1.70;;
51588;SDS011;37671;53.258;6.460;2022-10-16T12:28:25;13.88;;;1.73;;
51588;SDS011;37671;53.258;6.460;2022-10-16T12:31:14;13.75;;;1.92;;
51588;SDS011;37671;53.258;6.460;2022-10-16T12:33:42;12.07;;;1.60;;
51588;SDS011;37671;53.258;6.460;2022-10-16T12:36:30;11.07;;;1.65;;
51588;SDS011;37671;53.258;6.460;2022-10-16T12:38:58;12.48;;;1.70;;
51588;SDS011;37671;53.258;6.460;2022-10-16T12:41:29;12.32;;;2.08;;
51588;SDS011;37671;53.258;6.460;2022-10-16T12:43:56;14.20;;;2.13;;
51588;SDS011;37671;53.258;6.460;2022-10-16T12:49:04;9.95;;;1.73;;
51588;SDS011;37671;53.258;6.460;2022-10-16T12:51:40;11.10;;;1.42;;
51588;SDS011;37671;53.258;6.460;2022-10-16T12:54:14;11.77;;;1.52;;
51588;SDS011;37671;53.258;6.460;2022-10-16T13:10:46;10.18;;;1.85;;
51588;SDS011;37671;53.258;6.460;2022-10-16T13:24:33;11.25;;;1.70;;
51588;SDS011;37671;53.258;6.460;2022-10-16T13:29:44;11.70;;;1.92;;
51588;SDS011;37671;53.258;6.460;2022-10-16T13:32:17;13.80;;;2.15;;
51588;SDS011;37671;53.258;6.460;2022-10-16T13:34:45;9.90;;;1.40;;
51588;SDS011;37671;53.258;6.460;2022-10-16T13:37:24;11.10;;;1.60;;
51588;SDS011;37671;53.258;6.460;2022-10-16T13:39:50;10.68;;;1.42;;
51588;SDS011;37671;53.258;6.460;2022-10-16T13:42:26;7.82;;;1.13;;
51588;SDS011;37671;53.258;6.460;2022-10-16T13:44:53;11.68;;;1.90;;
51588;SDS011;37671;53.258;6.460;2022-10-16T13:47:22;9.20;;;1.33;;
51588;SDS011;37671;53.258;6.460;2022-10-16T13:49:59;10.43;;;1.88;;
51588;SDS011;37671;53.258;6.460;2022-10-16T13:52:26;12.57;;;1.38;;
51588;SDS011;37671;53.258;6.460;2022-10-16T13:54:52;9.07;;;1.40;;
51588;SDS011;37671;53.258;6.460;2022-10-16T13:57:18;10.07;;;1.50;;
51588;SDS011;37671;53.258;6.460;2022-10-16T13:59:47;10.38;;;2.08;;
51588;SDS011;37671;53.258;6.460;2022-10-16T14:02:22;11.63;;;1.50;;
51588;SDS011;37671;53.258;6.460;2022-10-16T14:05:00;8.77;;;1.58;;
51588;SDS011;37671;53.258;6.460;2022-10-16T14:07:28;10.70;;;1.67;;
51588;SDS011;37671;53.258;6.460;2022-10-16T14:09:56;13.02;;;1.67;;
51588;SDS011;37671;53.258;6.460;2022-10-16T14:12:30;11.25;;;1.50;;
51588;SDS011;37671;53.258;6.460;2022-10-16T14:14:56;11.38;;;1.88;;
51588;SDS011;37671;53.258;6.460;2022-10-16T14:17:27;10.90;;;1.67;;
51588;SDS011;37671;53.258;6.460;2022-10-16T14:19:56;12.68;;;1.60;;
51588;SDS011;37671;53.258;6.460;2022-10-16T14:24:54;9.45;;;1.95;;
51588;SDS011;37671;53.258;6.460;2022-10-16T14:27:33;11.05;;;1.55;;
51588;SDS011;37671;53.258;6.460;2022-10-16T14:30:17;10.70;;;1.40;;
51588;SDS011;37671;53.258;6.460;2022-10-16T14:32:56;10.57;;;1.70;;
51588;SDS011;37671;53.258;6.460;2022-10-16T14:35:34;9.50;;;1.70;;
51588;SDS011;37671;53.258;6.460;2022-10-16T14:38:03;13.57;;;2.08;;
51588;SDS011;37671;53.258;6.460;2022-10-16T14:40:35;12.68;;;1.60;;
51588;SDS011;37671;53.258;6.460;2022-10-16T14:43:02;9.13;;;1.48;;
51588;SDS011;37671;53.258;6.460;2022-10-16T14:45:30;11.07;;;1.73;;
51588;SDS011;37671;53.258;6.460;2022-10-16T14:47:58;11.50;;;1.80;;
51588;SDS011;37671;53.258;6.460;2022-10-16T14:50:31;11.73;;;1.38;;
51588;SDS011;37671;53.258;6.460;2022-10-16T14:52:56;10.25;;;1.67;;
51588;SDS011;37671;53.258;6.460;2022-10-16T14:55:23;15.90;;;1.70;;
51588;SDS011;37671;53.258;6.460;2022-10-16T14:57:50;9.25;;;1.25;;
51588;SDS011;37671;53.258;6.460;2022-10-16T15:00:17;10.50;;;1.95;;
51588;SDS011;37671;53.258;6.460;2022-10-16T15:02:48;11.38;;;1.80;;
51588;SDS011;37671;53.258;6.460;2022-10-16T15:05:18;12.65;;;1.40;;
51588;SDS011;37671;53.258;6.460;2022-10-16T15:07:47;16.15;;;2.15;;
51588;SDS011;37671;53.258;6.460;2022-10-16T15:10:13;10.48;;;1.70;;
51588;SDS011;37671;53.258;6.460;2022-10-16T15:12:40;13.52;;;1.70;;
51588;SDS011;37671;53.258;6.460;2022-10-16T15:17:57;10.52;;;1.30;;
51588;SDS011;37671;53.258;6.460;2022-10-16T15:20:43;8.73;;;1.35;;
51588;SDS011;37671;53.258;6.460;2022-10-16T15:23:16;10.73;;;1.60;;
51588;SDS011;37671;53.258;6.460;2022-10-16T15:25:45;13.98;;;1.60;;
51588;SDS011;37671;53.258;6.460;2022-10-16T15:28:12;10.13;;;1.95;;
51588;SDS011;37671;53.258;6.460;2022-10-16T15:30:40;13.93;;;1.65;;
51588;SDS011;37671;53.258;6.460;2022-10-16T15:33:10;11.43;;;1.70;;
51588;SDS011;37671;53.258;6.460;2022-10-16T15:35:38;10.93;;;2.35;;
51588;SDS011;37671;53.258;6.460;2022-10-16T15:38:04;11.32;;;1.70;;
51588;SDS011;37671;53.258;6.460;2022-10-16T15:40:30;19.13;;;10.65;;
51588;SDS011;37671;53.258;6.460;2022-10-16T15:42:55;16.00;;;7.72;;
51588;SDS011;37671;53.258;6.460;2022-10-16T15:45:21;15.52;;;5.50;;
51588;SDS011;37671;53.258;6.460;2022-10-16T15:47:46;11.27;;;4.57;;
51588;SDS011;37671;53.258;6.460;2022-10-16T15:50:13;12.50;;;4.53;;
51588;SDS011;37671;53.258;6.460;2022-10-16T15:52:40;15.32;;;4.00;;
51588;SDS011;37671;53.258;6.460;2022-10-16T15:55:07;11.23;;;3.60;;
51588;SDS011;37671;53.258;6.460;2022-10-16T15:57:35;14.98;;;3.20;;
51588;SDS011;37671;53.258;6.460;2022-10-16T16:00:03;10.15;;;3.00;;
51588;SDS011;37671;53.258;6.460;2022-10-16T16:02:33;10.15;;;2.08;;
51588;SDS011;37671;53.258;6.460;2022-10-16T16:04:59;11.90;;;2.10;;
51588;SDS011;37671;53.258;6.460;2022-10-16T16:07:24;9.65;;;1.90;;
51588;SDS011;37671;53.258;6.460;2022-10-16T16:09:52;12.90;;;2.20;;
51588;SDS011;37671;53.258;6.460;2022-10-16T16:12:18;10.07;;;1.75;;
51588;SDS011;37671;53.258;6.460;2022-10-16T16:14:44;12.85;;;2.40;;
51588;SDS011;37671;53.258;6.460;2022-10-16T16:17:11;10.65;;;2.90;;
51588;SDS011;37671;53.258;6.460;2022-10-16T16:19:37;10.50;;;2.55;;
51588;SDS011;37671;53.258;6.460;2022-10-16T16:22:02;12.30;;;2.65;;
51588;SDS011;37671;53.258;6.460;2022-10-16T16:24:28;10.20;;;2.97;;
51588;SDS011;37671;53.258;6.460;2022-10-16T16:26:53;8.48;;;3.05;;
51588;SDS011;37671;53.258;6.460;2022-10-16T16:29:19;12.68;;;3.13;;
51588;SDS011;37671;53.258;6.460;2022-10-16T16:31:45;15.60;;;3.03;;
51588;SDS011;37671;53.258;6.460;2022-10-16T16:34:12;13.82;;;3.28;;
51588;SDS011;37671;53.258;6.460;2022-10-16T16:36:38;14.25;;;3.50;;
51588;SDS011;37671;53.258;6.460;2022-10-16T16:39:05;13.55;;;4.07;;
51588;SDS011;37671;53.258;6.460;2022-10-16T16:41:33;21.88;;;7.13;;
51588;SDS011;37671;53.258;6.460;2022-10-16T16:44:03;23.63;;;5.63;;
51588;SDS011;37671;53.258;6.460;2022-10-16T16:46:30;14.80;;;4.57;;
51588;SDS011;37671;53.258;6.460;2022-10-16T16:48:57;16.95;;;4.65;;
51588;SDS011;37671;53.258;6.460;2022-10-16T16:51:24;17.98;;;4.32;;
51588;SDS011;37671;53.258;6.460;2022-10-16T16:53:50;12.88;;;4.00;;
51588;SDS011;37671;53.258;6.460;2022-10-16T16:56:17;12.95;;;3.10;;
51588;SDS011;37671;53.258;6.460;2022-10-16T16:58:50;14.32;;;4.22;;
51588;SDS011;37671;53.258;6.460;2022-10-16T17:01:17;14.65;;;3.88;;
51588;SDS011;37671;53.258;6.460;2022-10-16T17:03:44;19.55;;;5.60;;
51588;SDS011;37671;53.258;6.460;2022-10-16T17:06:10;15.18;;;5.10;;
51588;SDS011;37671;53.258;6.460;2022-10-16T17:08:38;12.88;;;4.60;;
51588;SDS011;37671;53.258;6.460;2022-10-16T17:11:04;14.25;;;5.53;;
51588;SDS011;37671;53.258;6.460;2022-10-16T17:13:33;13.45;;;5.20;;
51588;SDS011;37671;53.258;6.460;2022-10-16T17:16:02;14.95;;;5.68;;
51588;SDS011;37671;53.258;6.460;2022-10-16T17:18:31;15.23;;;5.43;;
51588;SDS011;37671;53.258;6.460;2022-10-16T17:20:58;12.10;;;5.18;;
51588;SDS011;37671;53.258;6.460;2022-10-16T17:23:25;18.63;;;5.30;;
51588;SDS011;37671;53.258;6.460;2022-10-16T17:25:51;14.70;;;3.90;;
51588;SDS011;37671;53.258;6.460;2022-10-16T17:28:16;13.52;;;4.10;;
51588;SDS011;37671;53.258;6.460;2022-10-16T17:30:42;11.20;;;3.28;;
51588;SDS011;37671;53.258;6.460;2022-10-16T17:33:09;10.75;;;3.10;;
51588;SDS011;37671;53.258;6.460;2022-10-16T17:35:45;14.60;;;3.45;;
51588;SDS011;37671;53.258;6.460;2022-10-16T17:38:12;16.17;;;3.17;;
51588;SDS011;37671;53.258;6.460;2022-10-16T17:40:39;17.13;;;4.20;;
51588;SDS011;37671;53.258;6.460;2022-10-16T17:43:05;18.85;;;5.03;;
51588;SDS011;37671;53.258;6.460;2022-10-16T17:45:35;10.23;;;3.20;;
51588;SDS011;37671;53.258;6.460;2022-10-16T17:48:01;9.38;;;2.50;;
51588;SDS011;37671;53.258;6.460;2022-10-16T17:50:27;10.27;;;3.50;;
51588;SDS011;37671;53.258;6.460;2022-10-16T17:52:53;14.85;;;2.92;;
51588;SDS011;37671;53.258;6.460;2022-10-16T17:55:18;10.32;;;2.38;;
51588;SDS011;37671;53.258;6.460;2022-10-16T17:57:44;12.18;;;2.20;;
51588;SDS011;37671;53.258;6.460;2022-10-16T18:00:11;10.45;;;2.17;;
51588;SDS011;37671;53.258;6.460;2022-10-16T18:02:37;13.05;;;2.30;;
51588;SDS011;37671;53.258;6.460;2022-10-16T18:05:06;14.30;;;2.55;;
51588;SDS011;37671;53.258;6.460;2022-10-16T18:07:33;13.10;;;2.78;;
51588;SDS011;37671;53.258;6.460;2022-10-16T18:09:59;14.20;;;2.70;;
51588;SDS011;37671;53.258;6.460;2022-10-16T18:12:27;12.52;;;2.35;;
51588;SDS011;37671;53.258;6.460;2022-10-16T18:14:53;12.80;;;2.38;;
51588;SDS011;37671;53.258;6.460;2022-10-16T18:17:22;10.27;;;2.60;;
51588;SDS011;37671;53.258;6.460;2022-10-16T18:19:48;13.00;;;2.70;;
51588;SDS011;37671;53.258;6.460;2022-10-16T18:22:14;13.23;;;2.42;;
51588;SDS011;37671;53.258;6.460;2022-10-16T18:24:39;13.05;;;2.13;;
51588;SDS011;37671;53.258;6.460;2022-10-16T18:27:05;11.95;;;2.85;;
51588;SDS011;37671;53.258;6.460;2022-10-16T18:29:31;12.45;;;2.53;;
51588;SDS011;37671;53.258;6.460;2022-10-16T18:31:57;13.68;;;2.35;;
51588;SDS011;37671;53.258;6.460;2022-10-16T18:34:22;10.90;;;2.85;;
51588;SDS011;37671;53.258;6.460;2022-10-16T18:36:50;13.88;;;2.78;;
51588;SDS011;37671;53.258;6.460;2022-10-16T18:39:16;20.55;;;3.22;;
51588;SDS011;37671;53.258;6.460;2022-10-16T18:41:42;15.88;;;2.90;;
51588;SDS011;37671;53.258;6.460;2022-10-16T18:44:11;17.83;;;3.35;;
51588;SDS011;37671;53.258;6.460;2022-10-16T18:46:37;14.30;;;2.90;;
51588;SDS011;37671;53.258;6.460;2022-10-16T18:49:04;11.80;;;2.75;;
51588;SDS011;37671;53.258;6.460;2022-10-16T18:51:31;9.00;;;2.55;;
51588;SDS011;37671;53.258;6.460;2022-10-16T18:54:04;10.98;;;2.70;;
51588;SDS011;37671;53.258;6.460;2022-10-16T18:56:33;15.15;;;2.90;;
51588;SDS011;37671;53.258;6.460;2022-10-16T18:58:59;10.30;;;2.58;;
51588;SDS011;37671;53.258;6.460;2022-10-16T19:01:27;13.90;;;2.67;;
51588;SDS011;37671;53.258;6.460;2022-10-16T19:06:28;12.60;;;3.10;;
51588;SDS011;37671;53.258;6.460;2022-10-16T19:08:56;17.13;;;6.82;;
51588;SDS011;37671;53.258;6.460;2022-10-16T19:11:22;26.00;;;10.15;;
51588;SDS011;37671;53.258;6.460;2022-10-16T19:13:50;20.02;;;9.60;;
51588;SDS011;37671;53.258;6.460;2022-10-16T19:16:22;19.38;;;8.82;;
51588;SDS011;37671;53.258;6.460;2022-10-16T19:18:53;21.55;;;8.40;;
51588;SDS011;37671;53.258;6.460;2022-10-16T19:21:20;17.23;;;7.38;;
51588;SDS011;37671;53.258;6.460;2022-10-16T19:23:51;21.42;;;8.55;;
51588;SDS011;37671;53.258;6.460;2022-10-16T19:26:28;15.68;;;5.75;;
51588;SDS011;37671;53.258;6.460;2022-10-16T19:28:55;14.75;;;4.85;;
51588;SDS011;37671;53.258;6.460;2022-10-16T19:31:23;15.82;;;4.22;;
51588;SDS011;37671;53.258;6.460;2022-10-16T19:33:56;17.42;;;3.90;;
51588;SDS011;37671;53.258;6.460;2022-10-16T19:36:30;12.48;;;3.22;;
51588;SDS011;37671;53.258;6.460;2022-10-16T19:39:05;14.70;;;3.20;;
51588;SDS011;37671;53.258;6.460;2022-10-16T19:41:36;14.93;;;2.72;;
51588;SDS011;37671;53.258;6.460;2022-10-16T19:44:03;14.30;;;3.47;;
51588;SDS011;37671;53.258;6.460;2022-10-16T19:46:30;16.13;;;3.90;;
51588;SDS011;37671;53.258;6.460;2022-10-16T19:48:58;12.50;;;3.28;;
51588;SDS011;37671;53.258;6.460;2022-10-16T19:51:25;14.35;;;3.45;;
51588;SDS011;37671;53.258;6.460;2022-10-16T19:54:03;10.32;;;3.03;;
51588;SDS011;37671;53.258;6.460;2022-10-16T19:56:31;10.55;;;2.70;;
51588;SDS011;37671;53.258;6.460;2022-10-16T19:58:58;13.00;;;3.50;;
51588;SDS011;37671;53.258;6.460;2022-10-16T20:01:25;13.15;;;3.20;;
51588;SDS011;37671;53.258;6.460;2022-10-16T20:03:52;15.32;;;3.38;;
51588;SDS011;37671;53.258;6.460;2022-10-16T20:06:18;10.48;;;3.45;;
51588;SDS011;37671;53.258;6.460;2022-10-16T20:08:45;11.70;;;3.58;;
51588;SDS011;37671;53.258;6.460;2022-10-16T20:11:13;13.02;;;3.38;;
51588;SDS011;37671;53.258;6.460;2022-10-16T20:13:43;11.18;;;3.13;;
51588;SDS011;37671;53.258;6.460;2022-10-16T20:16:09;10.30;;;2.67;;
51588;SDS011;37671;53.258;6.460;2022-10-16T20:18:36;12.68;;;3.47;;
51588;SDS011;37671;53.258;6.460;2022-10-16T20:21:07;14.15;;;3.83;;
51588;SDS011;37671;53.258;6.460;2022-10-16T20:23:34;12.10;;;3.28;;
51588;SDS011;37671;53.258;6.460;2022-10-16T20:25:59;10.77;;;3.67;;
51588;SDS011;37671;53.258;6.460;2022-10-16T20:28:25;14.32;;;4.30;;
51588;SDS011;37671;53.258;6.460;2022-10-16T20:30:51;16.30;;;4.18;;
51588;SDS011;37671;53.258;6.460;2022-10-16T20:33:16;14.68;;;4.05;;
51588;SDS011;37671;53.258;6.460;2022-10-16T20:35:43;19.85;;;4.25;;
51588;SDS011;37671;53.258;6.460;2022-10-16T20:38:11;12.70;;;3.80;;
51588;SDS011;37671;53.258;6.460;2022-10-16T20:40:38;17.17;;;4.03;;
51588;SDS011;37671;53.258;6.460;2022-10-16T20:43:06;16.52;;;4.85;;
51588;SDS011;37671;53.258;6.460;2022-10-16T20:45:35;16.67;;;4.70;;
51588;SDS011;37671;53.258;6.460;2022-10-16T20:48:01;14.30;;;4.32;;
51588;SDS011;37671;53.258;6.460;2022-10-16T20:50:29;14.20;;;4.30;;
51588;SDS011;37671;53.258;6.460;2022-10-16T20:52:55;14.18;;;4.18;;
51588;SDS011;37671;53.258;6.460;2022-10-16T20:55:22;14.45;;;5.10;;
51588;SDS011;37671;53.258;6.460;2022-10-16T20:57:48;15.10;;;4.45;;
51588;SDS011;37671;53.258;6.460;2022-10-16T21:00:13;13.25;;;3.92;;
51588;SDS011;37671;53.258;6.460;2022-10-16T21:02:39;13.13;;;3.97;;
51588;SDS011;37671;53.258;6.460;2022-10-16T21:05:05;12.25;;;4.38;;
51588;SDS011;37671;53.258;6.460;2022-10-16T21:07:31;12.10;;;4.32;;
51588;SDS011;37671;53.258;6.460;2022-10-16T21:09:57;16.67;;;4.57;;
51588;SDS011;37671;53.258;6.460;2022-10-16T21:12:23;15.80;;;4.00;;
51588;SDS011;37671;53.258;6.460;2022-10-16T21:14:49;12.70;;;3.60;;
51588;SDS011;37671;53.258;6.460;2022-10-16T21:17:15;18.88;;;4.18;;
51588;SDS011;37671;53.258;6.460;2022-10-16T21:19:41;11.52;;;3.78;;
51588;SDS011;37671;53.258;6.460;2022-10-16T21:22:07;11.07;;;3.55;;
51588;SDS011;37671;53.258;6.460;2022-10-16T21:24:33;16.40;;;4.18;;
51588;SDS011;37671;53.258;6.460;2022-10-16T21:27:00;15.88;;;3.58;;
51588;SDS011;37671;53.258;6.460;2022-10-16T21:29:26;12.05;;;3.85;;
51588;SDS011;37671;53.258;6.460;2022-10-16T21:31:51;16.77;;;3.30;;
51588;SDS011;37671;53.258;6.460;2022-10-16T21:34:17;13.25;;;4.28;;